logo dgac
Viernes 14 de Agosto del 2020
Buscar por aerodromo o helipuerto
Ingrese nombre de aeródromo, localidad o designador OACI:

Aeródromo: Chacalluta (PUB) (SCAR)

Ubicación: Arica, XV Región, Chile (18º 20' 55'' S, 70º 20' 19'' W) Ver ubicación en el mapa

Pistas

Orientación Dimensión Pendiente Superficie Resistencia APCH THR RWY PAPI
02/20 2170 x 45 0,60 ASPH 40 F/A/X/T
Horas de operación H24
Elevación 51 m / 166 ft
Otra Información Adm : D.G.A.C
Uso : PUB
Ubicado a 18,5 Km al NW de la Cuidad de Arica
Central TEL 56-582281100
email : aro.arica@dgac.gob.cl

Otra información ver AIP-Chile Volumen I AD 2.2-1 SCAR

CCCM/FCCV Descargar
andera de Chile
Mapa de Chacalluta (PUB) (SCAR)

Último METAR

METAR SCAR 140200Z 18008KT 9999 OVC028 16/12 Q1015

Último TAF

TAF SCAR 132302Z 1400/1424 19004KT 9999 OVC030 TN14/1410Z TX18/1419Z BECMG 1416/1418 23010KT FEW020 BECMG 1422/1424 20004KT BKN025

Últimas fotos cámaras

Imagen aerodromo Chacalluta (PUB) (SCAR) S-Oeste tomada el 14-08-2020 02:25:44 Imagen aerodromo Chacalluta (PUB) (SCAR) Norte tomada el 14-08-2020 02:25:40

Último NOTAM

A3055/20 NOTAMN Q)SCFZ/QLTAS/IV/BO/A/000/999/1821S07020W005 A)SCAR B)2008050059 C)2009042000 E)ILUMINATION SYSTEM OF WDI BOTH THR U/S